Capulin Mountain National Mo, New Mexico
Current Conditions -  °F | °C
As of 6:53 AM on Thursday 30 Oct 2014 (Local Time) from KRTN Reporting Station
Clear Clear  
Wind Chill: 42°   Ceiling: Unl
Heat Index: 46°   Visibility: 10mi
Dew Point: 19°   Wind: 8mph
Humidity: 34%   Direction: 20°NNE
Pressure: 30.33"   Gusts: NA
Location:  36.7361°N, 103.978°W
Report Text: KRTN 301253Z AUTO 02007KT 10SM CLR 08/M07 A3033 RMK AO2 SLP225 T00781072
Loading
Personal Weather Stations






























Interactive Weather Map
Tropical Storm Tracking
New forecast layout! Learn more

10-Day Weather Forecast

Advertisements
Track Severe Weather on mobile